sensor_id;sensor_type;location;lat;lon;timestamp;P1;durP1;ratioP1;P2;durP2;ratioP2
33858;SDS011;20156;47.486;12.074;2023-07-13T00:00:46;4.65;;;3.22;;
33858;SDS011;20156;47.486;12.074;2023-07-13T00:03:11;4.57;;;3.20;;
33858;SDS011;20156;47.486;12.074;2023-07-13T00:05:38;6.18;;;3.38;;
33858;SDS011;20156;47.486;12.074;2023-07-13T00:08:04;6.40;;;3.05;;
33858;SDS011;20156;47.486;12.074;2023-07-13T00:10:29;4.13;;;3.20;;
33858;SDS011;20156;47.486;12.074;2023-07-13T00:12:55;6.25;;;3.00;;
33858;SDS011;20156;47.486;12.074;2023-07-13T00:15:24;9.20;;;3.47;;
33858;SDS011;20156;47.486;12.074;2023-07-13T00:17:54;4.28;;;3.40;;
33858;SDS011;20156;47.486;12.074;2023-07-13T00:20:21;5.10;;;3.60;;
33858;SDS011;20156;47.486;12.074;2023-07-13T00:22:49;3.72;;;3.30;;
33858;SDS011;20156;47.486;12.074;2023-07-13T00:25:16;5.10;;;3.60;;
33858;SDS011;20156;47.486;12.074;2023-07-13T00:27:42;3.60;;;3.05;;
33858;SDS011;20156;47.486;12.074;2023-07-13T00:30:08;4.03;;;3.03;;
33858;SDS011;20156;47.486;12.074;2023-07-13T00:32:35;4.82;;;3.47;;
33858;SDS011;20156;47.486;12.074;2023-07-13T00:35:01;4.72;;;3.55;;
33858;SDS011;20156;47.486;12.074;2023-07-13T00:37:28;5.25;;;3.65;;
33858;SDS011;20156;47.486;12.074;2023-07-13T00:39:54;5.28;;;3.22;;
33858;SDS011;20156;47.486;12.074;2023-07-13T00:42:19;3.35;;;3.05;;
33858;SDS011;20156;47.486;12.074;2023-07-13T00:47:45;3.30;;;3.00;;
33858;SDS011;20156;47.486;12.074;2023-07-13T00:50:12;4.78;;;3.20;;
33858;SDS011;20156;47.486;12.074;2023-07-13T00:52:41;4.05;;;2.95;;
33858;SDS011;20156;47.486;12.074;2023-07-13T00:55:09;3.85;;;3.00;;
33858;SDS011;20156;47.486;12.074;2023-07-13T00:57:37;3.42;;;3.05;;
33858;SDS011;20156;47.486;12.074;2023-07-13T01:00:04;2.92;;;2.72;;
33858;SDS011;20156;47.486;12.074;2023-07-13T01:02:38;3.35;;;2.42;;
33858;SDS011;20156;47.486;12.074;2023-07-13T01:05:10;3.35;;;2.72;;
33858;SDS011;20156;47.486;12.074;2023-07-13T01:07:38;5.20;;;3.33;;
33858;SDS011;20156;47.486;12.074;2023-07-13T01:13:04;3.05;;;2.55;;
33858;SDS011;20156;47.486;12.074;2023-07-13T01:15:38;5.85;;;2.92;;
33858;SDS011;20156;47.486;12.074;2023-07-13T01:18:09;5.18;;;2.83;;
33858;SDS011;20156;47.486;12.074;2023-07-13T01:20:37;3.33;;;2.67;;
33858;SDS011;20156;47.486;12.074;2023-07-13T01:23:08;2.53;;;2.28;;
33858;SDS011;20156;47.486;12.074;2023-07-13T01:25:36;3.60;;;2.45;;
33858;SDS011;20156;47.486;12.074;2023-07-13T01:28:02;2.90;;;2.60;;
33858;SDS011;20156;47.486;12.074;2023-07-13T01:30:33;3.47;;;3.00;;
33858;SDS011;20156;47.486;12.074;2023-07-13T01:33:00;3.45;;;2.95;;
33858;SDS011;20156;47.486;12.074;2023-07-13T01:35:25;3.33;;;2.90;;
33858;SDS011;20156;47.486;12.074;2023-07-13T01:37:52;4.13;;;2.70;;
33858;SDS011;20156;47.486;12.074;2023-07-13T01:40:17;3.25;;;2.45;;
33858;SDS011;20156;47.486;12.074;2023-07-13T01:42:43;2.92;;;2.60;;
33858;SDS011;20156;47.486;12.074;2023-07-13T01:45:08;2.55;;;2.17;;
33858;SDS011;20156;47.486;12.074;2023-07-13T01:47:34;4.28;;;2.67;;
33858;SDS011;20156;47.486;12.074;2023-07-13T01:49:59;2.85;;;2.40;;
33858;SDS011;20156;47.486;12.074;2023-07-13T01:52:25;3.10;;;2.50;;
33858;SDS011;20156;47.486;12.074;2023-07-13T01:54:50;3.88;;;2.70;;
33858;SDS011;20156;47.486;12.074;2023-07-13T01:57:16;4.53;;;2.80;;
33858;SDS011;20156;47.486;12.074;2023-07-13T01:59:41;3.38;;;2.80;;
33858;SDS011;20156;47.486;12.074;2023-07-13T02:02:07;4.38;;;2.83;;
33858;SDS011;20156;47.486;12.074;2023-07-13T02:04:32;3.83;;;2.60;;
33858;SDS011;20156;47.486;12.074;2023-07-13T02:06:58;4.53;;;2.50;;
33858;SDS011;20156;47.486;12.074;2023-07-13T02:09:24;3.30;;;2.40;;
33858;SDS011;20156;47.486;12.074;2023-07-13T02:11:49;3.08;;;2.78;;
33858;SDS011;20156;47.486;12.074;2023-07-13T02:14:15;2.65;;;2.42;;
33858;SDS011;20156;47.486;12.074;2023-07-13T02:16:40;2.38;;;2.17;;
33858;SDS011;20156;47.486;12.074;2023-07-13T02:19:06;3.25;;;2.22;;
33858;SDS011;20156;47.486;12.074;2023-07-13T02:21:31;4.00;;;2.55;;
33858;SDS011;20156;47.486;12.074;2023-07-13T02:23:57;4.15;;;2.47;;
33858;SDS011;20156;47.486;12.074;2023-07-13T02:26:22;3.20;;;2.28;;
33858;SDS011;20156;47.486;12.074;2023-07-13T02:28:48;4.05;;;2.72;;
33858;SDS011;20156;47.486;12.074;2023-07-13T02:31:14;2.88;;;2.40;;
33858;SDS011;20156;47.486;12.074;2023-07-13T02:33:40;4.72;;;3.10;;
33858;SDS011;20156;47.486;12.074;2023-07-13T02:36:06;5.63;;;2.78;;
33858;SDS011;20156;47.486;12.074;2023-07-13T02:38:32;2.63;;;2.40;;
33858;SDS011;20156;47.486;12.074;2023-07-13T02:40:59;3.60;;;2.83;;
33858;SDS011;20156;47.486;12.074;2023-07-13T02:43:25;2.60;;;2.40;;
33858;SDS011;20156;47.486;12.074;2023-07-13T02:45:50;3.20;;;2.90;;
33858;SDS011;20156;47.486;12.074;2023-07-13T02:48:16;2.55;;;2.33;;
33858;SDS011;20156;47.486;12.074;2023-07-13T02:50:41;2.80;;;2.08;;
33858;SDS011;20156;47.486;12.074;2023-07-13T02:53:07;5.35;;;2.00;;
33858;SDS011;20156;47.486;12.074;2023-07-13T02:55:32;6.63;;;2.50;;
33858;SDS011;20156;47.486;12.074;2023-07-13T02:57:58;4.25;;;2.25;;
33858;SDS011;20156;47.486;12.074;2023-07-13T03:00:23;2.45;;;2.00;;
33858;SDS011;20156;47.486;12.074;2023-07-13T03:02:49;3.05;;;2.13;;
33858;SDS011;20156;47.486;12.074;2023-07-13T03:05:14;3.42;;;2.03;;
33858;SDS011;20156;47.486;12.074;2023-07-13T03:07:41;4.40;;;1.90;;
33858;SDS011;20156;47.486;12.074;2023-07-13T03:10:07;2.22;;;1.85;;
33858;SDS011;20156;47.486;12.074;2023-07-13T03:12:33;4.03;;;2.22;;
33858;SDS011;20156;47.486;12.074;2023-07-13T03:14:58;2.88;;;2.30;;
33858;SDS011;20156;47.486;12.074;2023-07-13T03:17:24;2.58;;;1.85;;
33858;SDS011;20156;47.486;12.074;2023-07-13T03:19:49;3.17;;;2.20;;
33858;SDS011;20156;47.486;12.074;2023-07-13T03:22:16;2.78;;;2.05;;
33858;SDS011;20156;47.486;12.074;2023-07-13T03:24:43;2.97;;;1.90;;
33858;SDS011;20156;47.486;12.074;2023-07-13T03:27:08;4.35;;;2.05;;
33858;SDS011;20156;47.486;12.074;2023-07-13T03:29:34;2.33;;;2.03;;
33858;SDS011;20156;47.486;12.074;2023-07-13T03:31:59;2.58;;;1.88;;
33858;SDS011;20156;47.486;12.074;2023-07-13T03:34:24;2.78;;;1.70;;
33858;SDS011;20156;47.486;12.074;2023-07-13T03:36:50;3.75;;;2.08;;
33858;SDS011;20156;47.486;12.074;2023-07-13T03:39:15;4.03;;;2.10;;
33858;SDS011;20156;47.486;12.074;2023-07-13T03:41:41;4.43;;;1.88;;
33858;SDS011;20156;47.486;12.074;2023-07-13T03:44:06;2.10;;;1.88;;
33858;SDS011;20156;47.486;12.074;2023-07-13T03:46:32;3.72;;;1.90;;
33858;SDS011;20156;47.486;12.074;2023-07-13T03:48:58;1.98;;;1.77;;
33858;SDS011;20156;47.486;12.074;2023-07-13T03:51:24;2.72;;;1.90;;
33858;SDS011;20156;47.486;12.074;2023-07-13T03:53:50;3.47;;;2.25;;
33858;SDS011;20156;47.486;12.074;2023-07-13T03:56:16;2.53;;;2.33;;
33858;SDS011;20156;47.486;12.074;2023-07-13T03:58:44;3.05;;;2.17;;
33858;SDS011;20156;47.486;12.074;2023-07-13T04:01:11;3.15;;;2.20;;
33858;SDS011;20156;47.486;12.074;2023-07-13T04:03:37;5.28;;;2.20;;
33858;SDS011;20156;47.486;12.074;2023-07-13T04:06:04;5.20;;;2.40;;
33858;SDS011;20156;47.486;12.074;2023-07-13T04:08:31;2.50;;;2.10;;
33858;SDS011;20156;47.486;12.074;2023-07-13T04:10:59;2.30;;;2.08;;
33858;SDS011;20156;47.486;12.074;2023-07-13T04:13:25;5.28;;;2.00;;
33858;SDS011;20156;47.486;12.074;2023-07-13T04:15:51;3.00;;;2.00;;
33858;SDS011;20156;47.486;12.074;2023-07-13T04:18:17;2.90;;;2.20;;
33858;SDS011;20156;47.486;12.074;2023-07-13T04:20:44;2.47;;;2.13;;
33858;SDS011;20156;47.486;12.074;2023-07-13T04:23:10;5.00;;;2.30;;
33858;SDS011;20156;47.486;12.074;2023-07-13T04:25:36;2.97;;;2.50;;
33858;SDS011;20156;47.486;12.074;2023-07-13T04:28:02;5.20;;;2.38;;
33858;SDS011;20156;47.486;12.074;2023-07-13T04:30:29;4.03;;;2.00;;
33858;SDS011;20156;47.486;12.074;2023-07-13T04:32:54;2.42;;;1.90;;
33858;SDS011;20156;47.486;12.074;2023-07-13T04:35:19;5.60;;;2.30;;
33858;SDS011;20156;47.486;12.074;2023-07-13T04:37:46;4.13;;;2.15;;
33858;SDS011;20156;47.486;12.074;2023-07-13T04:40:12;2.63;;;2.40;;
33858;SDS011;20156;47.486;12.074;2023-07-13T04:42:38;2.33;;;1.92;;
33858;SDS011;20156;47.486;12.074;2023-07-13T04:45:05;2.38;;;2.10;;
33858;SDS011;20156;47.486;12.074;2023-07-13T04:47:31;4.30;;;2.38;;
33858;SDS011;20156;47.486;12.074;2023-07-13T04:49:57;5.65;;;2.40;;
33858;SDS011;20156;47.486;12.074;2023-07-13T04:52:23;2.80;;;2.13;;
33858;SDS011;20156;47.486;12.074;2023-07-13T04:54:48;2.50;;;2.28;;
33858;SDS011;20156;47.486;12.074;2023-07-13T04:57:14;2.60;;;2.13;;
33858;SDS011;20156;47.486;12.074;2023-07-13T04:59:39;4.40;;;2.63;;
33858;SDS011;20156;47.486;12.074;2023-07-13T05:02:05;3.25;;;2.60;;
33858;SDS011;20156;47.486;12.074;2023-07-13T05:04:30;3.15;;;2.45;;
33858;SDS011;20156;47.486;12.074;2023-07-13T05:06:56;3.88;;;2.60;;
33858;SDS011;20156;47.486;12.074;2023-07-13T05:09:21;5.57;;;2.60;;
33858;SDS011;20156;47.486;12.074;2023-07-13T05:11:47;6.45;;;2.83;;
33858;SDS011;20156;47.486;12.074;2023-07-13T05:14:12;3.25;;;2.92;;
33858;SDS011;20156;47.486;12.074;2023-07-13T05:16:38;3.38;;;3.05;;
33858;SDS011;20156;47.486;12.074;2023-07-13T05:19:03;2.65;;;2.45;;
33858;SDS011;20156;47.486;12.074;2023-07-13T05:21:29;3.20;;;2.50;;
33858;SDS011;20156;47.486;12.074;2023-07-13T05:23:54;2.88;;;2.60;;
33858;SDS011;20156;47.486;12.074;2023-07-13T05:26:20;2.92;;;2.22;;
33858;SDS011;20156;47.486;12.074;2023-07-13T05:28:45;3.42;;;2.30;;
33858;SDS011;20156;47.486;12.074;2023-07-13T05:31:12;3.58;;;2.05;;
33858;SDS011;20156;47.486;12.074;2023-07-13T05:33:37;2.40;;;2.20;;
33858;SDS011;20156;47.486;12.074;2023-07-13T05:36:03;4.15;;;2.50;;
33858;SDS011;20156;47.486;12.074;2023-07-13T05:38:29;3.05;;;1.83;;
33858;SDS011;20156;47.486;12.074;2023-07-13T05:40:55;3.20;;;2.28;;
33858;SDS011;20156;47.486;12.074;2023-07-13T05:43:21;2.50;;;2.30;;
33858;SDS011;20156;47.486;12.074;2023-07-13T05:45:48;2.20;;;1.98;;
33858;SDS011;20156;47.486;12.074;2023-07-13T05:48:14;2.67;;;2.10;;
33858;SDS011;20156;47.486;12.074;2023-07-13T05:50:40;4.40;;;2.33;;
33858;SDS011;20156;47.486;12.074;2023-07-13T05:53:05;7.05;;;2.60;;
33858;SDS011;20156;47.486;12.074;2023-07-13T05:55:31;3.15;;;2.25;;
33858;SDS011;20156;47.486;12.074;2023-07-13T05:57:57;3.40;;;2.47;;
33858;SDS011;20156;47.486;12.074;2023-07-13T06:00:23;4.60;;;2.53;;
33858;SDS011;20156;47.486;12.074;2023-07-13T06:02:49;3.05;;;2.28;;
33858;SDS011;20156;47.486;12.074;2023-07-13T06:05:15;3.90;;;2.55;;
33858;SDS011;20156;47.486;12.074;2023-07-13T06:07:40;3.22;;;2.63;;
33858;SDS011;20156;47.486;12.074;2023-07-13T06:10:06;3.50;;;2.47;;
33858;SDS011;20156;47.486;12.074;2023-07-13T06:12:32;3.20;;;2.65;;
33858;SDS011;20156;47.486;12.074;2023-07-13T06:14:57;3.67;;;3.00;;
33858;SDS011;20156;47.486;12.074;2023-07-13T06:17:22;4.35;;;3.00;;
33858;SDS011;20156;47.486;12.074;2023-07-13T06:19:48;4.22;;;2.97;;
33858;SDS011;20156;47.486;12.074;2023-07-13T06:22:13;2.75;;;2.53;;
33858;SDS011;20156;47.486;12.074;2023-07-13T06:24:38;3.75;;;2.92;;
33858;SDS011;20156;47.486;12.074;2023-07-13T06:27:04;4.40;;;3.20;;
33858;SDS011;20156;47.486;12.074;2023-07-13T06:29:29;4.57;;;2.92;;
33858;SDS011;20156;47.486;12.074;2023-07-13T06:31:56;3.80;;;3.50;;
33858;SDS011;20156;47.486;12.074;2023-07-13T06:34:21;4.60;;;3.50;;
33858;SDS011;20156;47.486;12.074;2023-07-13T06:36:47;4.55;;;3.78;;
33858;SDS011;20156;47.486;12.074;2023-07-13T06:39:15;3.65;;;3.10;;
33858;SDS011;20156;47.486;12.074;2023-07-13T06:41:40;3.67;;;3.30;;
33858;SDS011;20156;47.486;12.074;2023-07-13T06:44:05;2.80;;;2.60;;
33858;SDS011;20156;47.486;12.074;2023-07-13T06:46:31;3.30;;;2.80;;
33858;SDS011;20156;47.486;12.074;2023-07-13T06:48:57;2.92;;;2.60;;
33858;SDS011;20156;47.486;12.074;2023-07-13T06:51:22;4.75;;;2.90;;
33858;SDS011;20156;47.486;12.074;2023-07-13T06:53:47;3.28;;;2.67;;
33858;SDS011;20156;47.486;12.074;2023-07-13T06:56:14;5.00;;;2.88;;
33858;SDS011;20156;47.486;12.074;2023-07-13T06:58:39;3.92;;;2.33;;
33858;SDS011;20156;47.486;12.074;2023-07-13T07:01:05;3.03;;;2.50;;
33858;SDS011;20156;47.486;12.074;2023-07-13T07:03:30;5.47;;;2.60;;
33858;SDS011;20156;47.486;12.074;2023-07-13T07:08:57;3.08;;;2.75;;
33858;SDS011;20156;47.486;12.074;2023-07-13T07:11:24;3.00;;;2.67;;
33858;SDS011;20156;47.486;12.074;2023-07-13T07:13:50;2.85;;;2.58;;
33858;SDS011;20156;47.486;12.074;2023-07-13T07:16:17;2.70;;;2.30;;
33858;SDS011;20156;47.486;12.074;2023-07-13T07:18:43;2.60;;;2.35;;
33858;SDS011;20156;47.486;12.074;2023-07-13T07:21:09;3.33;;;2.85;;
33858;SDS011;20156;47.486;12.074;2023-07-13T07:23:34;2.97;;;2.33;;
33858;SDS011;20156;47.486;12.074;2023-07-13T07:26:00;3.20;;;2.90;;
33858;SDS011;20156;47.486;12.074;2023-07-13T07:28:25;3.50;;;2.90;;
33858;SDS011;20156;47.486;12.074;2023-07-13T07:30:53;3.90;;;2.92;;
33858;SDS011;20156;47.486;12.074;2023-07-13T07:33:20;3.65;;;2.50;;
33858;SDS011;20156;47.486;12.074;2023-07-13T07:35:46;2.33;;;2.10;;
33858;SDS011;20156;47.486;12.074;2023-07-13T07:38:11;2.95;;;2.70;;
33858;SDS011;20156;47.486;12.074;2023-07-13T07:40:37;4.18;;;2.35;;
33858;SDS011;20156;47.486;12.074;2023-07-13T07:43:05;2.78;;;2.58;;
33858;SDS011;20156;47.486;12.074;2023-07-13T07:45:30;3.28;;;2.40;;
33858;SDS011;20156;47.486;12.074;2023-07-13T07:47:56;2.50;;;2.13;;
33858;SDS011;20156;47.486;12.074;2023-07-13T07:50:24;5.65;;;2.95;;
33858;SDS011;20156;47.486;12.074;2023-07-13T07:52:53;3.58;;;2.90;;
33858;SDS011;20156;47.486;12.074;2023-07-13T07:55:19;3.38;;;2.90;;
33858;SDS011;20156;47.486;12.074;2023-07-13T07:57:44;4.78;;;2.80;;
33858;SDS011;20156;47.486;12.074;2023-07-13T08:00:10;3.20;;;2.90;;
33858;SDS011;20156;47.486;12.074;2023-07-13T08:02:36;3.35;;;3.05;;
33858;SDS011;20156;47.486;12.074;2023-07-13T08:05:02;4.10;;;3.20;;
33858;SDS011;20156;47.486;12.074;2023-07-13T08:07:27;3.22;;;2.90;;
33858;SDS011;20156;47.486;12.074;2023-07-13T08:09:53;3.72;;;3.38;;
33858;SDS011;20156;47.486;12.074;2023-07-13T08:12:19;3.55;;;2.90;;
33858;SDS011;20156;47.486;12.074;2023-07-13T08:14:44;3.40;;;3.10;;
33858;SDS011;20156;47.486;12.074;2023-07-13T08:17:10;3.35;;;2.50;;
33858;SDS011;20156;47.486;12.074;2023-07-13T08:19:35;2.53;;;2.33;;
33858;SDS011;20156;47.486;12.074;2023-07-13T08:22:00;3.53;;;2.55;;
33858;SDS011;20156;47.486;12.074;2023-07-13T08:24:26;2.60;;;2.40;;
33858;SDS011;20156;47.486;12.074;2023-07-13T08:26:51;2.28;;;2.08;;
33858;SDS011;20156;47.486;12.074;2023-07-13T08:29:17;2.42;;;2.22;;
33858;SDS011;20156;47.486;12.074;2023-07-13T08:31:43;3.65;;;2.40;;
33858;SDS011;20156;47.486;12.074;2023-07-13T08:34:08;2.63;;;2.42;;
33858;SDS011;20156;47.486;12.074;2023-07-13T08:36:34;2.88;;;2.30;;
33858;SDS011;20156;47.486;12.074;2023-07-13T08:38:59;3.38;;;2.13;;
33858;SDS011;20156;47.486;12.074;2023-07-13T08:41:25;2.60;;;2.40;;
33858;SDS011;20156;47.486;12.074;2023-07-13T08:43:54;2.90;;;2.38;;
33858;SDS011;20156;47.486;12.074;2023-07-13T08:46:25;2.35;;;2.15;;
33858;SDS011;20156;47.486;12.074;2023-07-13T08:48:52;4.00;;;2.60;;
33858;SDS011;20156;47.486;12.074;2023-07-13T08:54:27;4.28;;;2.88;;
33858;SDS011;20156;47.486;12.074;2023-07-13T08:56:55;3.60;;;3.30;;
33858;SDS011;20156;47.486;12.074;2023-07-13T08:59:24;5.70;;;3.55;;
33858;SDS011;20156;47.486;12.074;2023-07-13T09:04:37;3.42;;;3.13;;
33858;SDS011;20156;47.486;12.074;2023-07-13T09:12:54;4.38;;;2.90;;
33858;SDS011;20156;47.486;12.074;2023-07-13T09:15:45;3.33;;;3.03;;
33858;SDS011;20156;47.486;12.074;2023-07-13T09:20:56;3.83;;;3.10;;
33858;SDS011;20156;47.486;12.074;2023-07-13T09:23:27;4.97;;;2.88;;
33858;SDS011;20156;47.486;12.074;2023-07-13T09:26:01;3.92;;;2.83;;
33858;SDS011;20156;47.486;12.074;2023-07-13T09:28:33;3.45;;;3.03;;
33858;SDS011;20156;47.486;12.074;2023-07-13T09:31:09;3.10;;;2.50;;
33858;SDS011;20156;47.486;12.074;2023-07-13T09:33:38;2.58;;;2.38;;
33858;SDS011;20156;47.486;12.074;2023-07-13T09:39:03;2.75;;;2.17;;
33858;SDS011;20156;47.486;12.074;2023-07-13T09:44:37;3.17;;;2.25;;
33858;SDS011;20156;47.486;12.074;2023-07-13T09:47:15;2.10;;;1.90;;
33858;SDS011;20156;47.486;12.074;2023-07-13T09:49:42;4.63;;;2.20;;
33858;SDS011;20156;47.486;12.074;2023-07-13T09:52:12;3.00;;;1.98;;
33858;SDS011;20156;47.486;12.074;2023-07-13T09:54:43;2.45;;;2.03;;
33858;SDS011;20156;47.486;12.074;2023-07-13T09:57:17;2.92;;;1.80;;
33858;SDS011;20156;47.486;12.074;2023-07-13T09:59:48;2.42;;;1.83;;
33858;SDS011;20156;47.486;12.074;2023-07-13T10:02:25;4.60;;;1.98;;
33858;SDS011;20156;47.486;12.074;2023-07-13T10:07:28;2.35;;;1.80;;
33858;SDS011;20156;47.486;12.074;2023-07-13T10:09:54;2.03;;;1.83;;
33858;SDS011;20156;47.486;12.074;2023-07-13T10:12:21;3.15;;;2.20;;
33858;SDS011;20156;47.486;12.074;2023-07-13T10:14:50;2.70;;;1.70;;
33858;SDS011;20156;47.486;12.074;2023-07-13T10:17:19;3.53;;;1.98;;
33858;SDS011;20156;47.486;12.074;2023-07-13T10:20:00;3.80;;;2.00;;
33858;SDS011;20156;47.486;12.074;2023-07-13T10:25:26;2.22;;;2.00;;
33858;SDS011;20156;47.486;12.074;2023-07-13T10:28:02;2.72;;;2.42;;
33858;SDS011;20156;47.486;12.074;2023-07-13T10:30:38;5.13;;;2.80;;
33858;SDS011;20156;47.486;12.074;2023-07-13T10:33:08;3.28;;;2.42;;
33858;SDS011;20156;47.486;12.074;2023-07-13T10:35:36;3.70;;;2.45;;
33858;SDS011;20156;47.486;12.074;2023-07-13T10:38:07;3.92;;;2.55;;
33858;SDS011;20156;47.486;12.074;2023-07-13T10:43:28;6.03;;;2.70;;
33858;SDS011;20156;47.486;12.074;2023-07-13T10:46:02;3.45;;;2.30;;
33858;SDS011;20156;47.486;12.074;2023-07-13T10:48:28;4.63;;;2.40;;
33858;SDS011;20156;47.486;12.074;2023-07-13T10:50:57;2.88;;;2.58;;
33858;SDS011;20156;47.486;12.074;2023-07-13T10:53:33;3.53;;;2.60;;
33858;SDS011;20156;47.486;12.074;2023-07-13T10:56:02;6.30;;;2.92;;
33858;SDS011;20156;47.486;12.074;2023-07-13T11:03:35;3.20;;;2.83;;
33858;SDS011;20156;47.486;12.074;2023-07-13T11:06:13;4.35;;;2.85;;
33858;SDS011;20156;47.486;12.074;2023-07-13T11:13:59;4.13;;;2.80;;
33858;SDS011;20156;47.486;12.074;2023-07-13T11:22:02;5.20;;;3.00;;
33858;SDS011;20156;47.486;12.074;2023-07-13T11:25:20;4.13;;;3.47;;
33858;SDS011;20156;47.486;12.074;2023-07-13T11:28:04;3.88;;;2.92;;
33858;SDS011;20156;47.486;12.074;2023-07-13T11:30:37;5.72;;;3.05;;
33858;SDS011;20156;47.486;12.074;2023-07-13T11:33:13;3.85;;;3.03;;
33858;SDS011;20156;47.486;12.074;2023-07-13T11:35:44;4.85;;;3.28;;
33858;SDS011;20156;47.486;12.074;2023-07-13T11:38:40;3.40;;;3.08;;
33858;SDS011;20156;47.486;12.074;2023-07-13T11:41:19;3.83;;;3.08;;
33858;SDS011;20156;47.486;12.074;2023-07-13T11:43:50;4.22;;;3.20;;
33858;SDS011;20156;47.486;12.074;2023-07-13T11:46:21;3.65;;;3.30;;
33858;SDS011;20156;47.486;12.074;2023-07-13T11:48:48;4.20;;;3.60;;
33858;SDS011;20156;47.486;12.074;2023-07-13T11:51:17;4.20;;;3.30;;
33858;SDS011;20156;47.486;12.074;2023-07-13T11:53:48;4.60;;;3.33;;
33858;SDS011;20156;47.486;12.074;2023-07-13T11:56:15;5.30;;;3.83;;
33858;SDS011;20156;47.486;12.074;2023-07-13T11:58:40;5.28;;;3.85;;
33858;SDS011;20156;47.486;12.074;2023-07-13T12:01:09;7.03;;;3.53;;
33858;SDS011;20156;47.486;12.074;2023-07-13T12:03:43;4.88;;;3.78;;
33858;SDS011;20156;47.486;12.074;2023-07-13T12:09:00;4.18;;;3.78;;
33858;SDS011;20156;47.486;12.074;2023-07-13T12:11:28;4.70;;;4.20;;
33858;SDS011;20156;47.486;12.074;2023-07-13T12:13:54;6.18;;;4.22;;
33858;SDS011;20156;47.486;12.074;2023-07-13T12:16:28;7.43;;;4.50;;
33858;SDS011;20156;47.486;12.074;2023-07-13T12:18:58;7.57;;;4.07;;
33858;SDS011;20156;47.486;12.074;2023-07-13T12:21:30;8.93;;;5.10;;
33858;SDS011;20156;47.486;12.074;2023-07-13T12:23:58;6.53;;;5.10;;
33858;SDS011;20156;47.486;12.074;2023-07-13T12:26:24;5.38;;;4.75;;
33858;SDS011;20156;47.486;12.074;2023-07-13T12:28:52;6.82;;;4.90;;
33858;SDS011;20156;47.486;12.074;2023-07-13T12:34:12;5.30;;;4.40;;
33858;SDS011;20156;47.486;12.074;2023-07-13T12:39:20;4.13;;;3.72;;
33858;SDS011;20156;47.486;12.074;2023-07-13T12:41:49;4.53;;;3.97;;
33858;SDS011;20156;47.486;12.074;2023-07-13T12:44:39;4.75;;;4.00;;
33858;SDS011;20156;47.486;12.074;2023-07-13T12:47:06;4.43;;;3.80;;
33858;SDS011;20156;47.486;12.074;2023-07-13T12:49:39;3.97;;;3.38;;
33858;SDS011;20156;47.486;12.074;2023-07-13T12:52:13;4.38;;;3.97;;
33858;SDS011;20156;47.486;12.074;2023-07-13T12:54:41;5.15;;;4.07;;
33858;SDS011;20156;47.486;12.074;2023-07-13T12:57:08;4.75;;;3.80;;
33858;SDS011;20156;47.486;12.074;2023-07-13T12:59:41;5.93;;;3.55;;
33858;SDS011;20156;47.486;12.074;2023-07-13T13:02:49;4.68;;;3.30;;
33858;SDS011;20156;47.486;12.074;2023-07-13T13:04:59;3.40;;;3.10;;
33858;SDS011;20156;47.486;12.074;2023-07-13T13:07:25;4.53;;;3.10;;
33858;SDS011;20156;47.486;12.074;2023-07-13T13:09:51;3.65;;;2.90;;
33858;SDS011;20156;47.486;12.074;2023-07-13T13:12:18;2.95;;;2.58;;
33858;SDS011;20156;47.486;12.074;2023-07-13T13:14:44;2.92;;;2.70;;
33858;SDS011;20156;47.486;12.074;2023-07-13T13:17:18;3.17;;;2.53;;
33858;SDS011;20156;47.486;12.074;2023-07-13T13:19:44;3.22;;;2.33;;
33858;SDS011;20156;47.486;12.074;2023-07-13T13:22:10;3.05;;;2.10;;
33858;SDS011;20156;47.486;12.074;2023-07-13T13:24:36;2.42;;;2.17;;
33858;SDS011;20156;47.486;12.074;2023-07-13T13:27:01;3.47;;;2.30;;
33858;SDS011;20156;47.486;12.074;2023-07-13T13:29:27;2.95;;;2.63;;
33858;SDS011;20156;47.486;12.074;2023-07-13T13:31:53;4.20;;;2.40;;
33858;SDS011;20156;47.486;12.074;2023-07-13T13:34:20;3.13;;;2.85;;
33858;SDS011;20156;47.486;12.074;2023-07-13T13:36:48;3.55;;;3.03;;
33858;SDS011;20156;47.486;12.074;2023-07-13T13:41:46;2.80;;;2.60;;
33858;SDS011;20156;47.486;12.074;2023-07-13T13:44:14;2.70;;;2.50;;
33858;SDS011;20156;47.486;12.074;2023-07-13T13:46:41;3.35;;;3.05;;
33858;SDS011;20156;47.486;12.074;2023-07-13T13:49:18;3.30;;;3.00;;
33858;SDS011;20156;47.486;12.074;2023-07-13T13:51:46;2.92;;;2.72;;
33858;SDS011;20156;47.486;12.074;2023-07-13T13:54:12;3.60;;;3.30;;
33858;SDS011;20156;47.486;12.074;2023-07-13T13:56:40;4.57;;;2.97;;
33858;SDS011;20156;47.486;12.074;2023-07-13T13:59:09;4.40;;;4.00;;
33858;SDS011;20156;47.486;12.074;2023-07-13T14:01:35;3.97;;;3.58;;
33858;SDS011;20156;47.486;12.074;2023-07-13T14:04:01;5.28;;;3.60;;
33858;SDS011;20156;47.486;12.074;2023-07-13T14:06:27;4.00;;;3.40;;
33858;SDS011;20156;47.486;12.074;2023-07-13T14:08:53;3.95;;;2.67;;
33858;SDS011;20156;47.486;12.074;2023-07-13T14:11:20;2.92;;;2.40;;
33858;SDS011;20156;47.486;12.074;2023-07-13T14:13:56;3.15;;;2.70;;
33858;SDS011;20156;47.486;12.074;2023-07-13T14:16:26;2.00;;;1.90;;
33858;SDS011;20156;47.486;12.074;2023-07-13T14:18:54;1.98;;;1.88;;
33858;SDS011;20156;47.486;12.074;2023-07-13T14:21:23;2.13;;;2.00;;
33858;SDS011;20156;47.486;12.074;2023-07-13T14:23:49;2.35;;;2.15;;
33858;SDS011;20156;47.486;12.074;2023-07-13T14:26:16;2.78;;;2.15;;
33858;SDS011;20156;47.486;12.074;2023-07-13T14:28:49;2.15;;;1.95;;
33858;SDS011;20156;47.486;12.074;2023-07-13T14:31:16;2.75;;;2.17;;
33858;SDS011;20156;47.486;12.074;2023-07-13T14:33:42;2.70;;;1.80;;
33858;SDS011;20156;47.486;12.074;2023-07-13T14:36:16;2.45;;;2.25;;
33858;SDS011;20156;47.486;12.074;2023-07-13T14:38:46;1.70;;;1.60;;
33858;SDS011;20156;47.486;12.074;2023-07-13T14:41:12;2.35;;;1.90;;
33858;SDS011;20156;47.486;12.074;2023-07-13T14:43:37;1.65;;;1.55;;
33858;SDS011;20156;47.486;12.074;2023-07-13T14:46:03;2.30;;;1.75;;
33858;SDS011;20156;47.486;12.074;2023-07-13T14:48:29;1.90;;;1.75;;
33858;SDS011;20156;47.486;12.074;2023-07-13T14:50:56;2.45;;;1.80;;
33858;SDS011;20156;47.486;12.074;2023-07-13T14:53:24;1.60;;;1.48;;
33858;SDS011;20156;47.486;12.074;2023-07-13T14:55:52;2.28;;;1.60;;
33858;SDS011;20156;47.486;12.074;2023-07-13T14:58:18;3.47;;;2.20;;
33858;SDS011;20156;47.486;12.074;2023-07-13T15:00:43;1.98;;;1.80;;
33858;SDS011;20156;47.486;12.074;2023-07-13T15:03:21;2.60;;;2.40;;
33858;SDS011;20156;47.486;12.074;2023-07-13T15:05:50;3.17;;;2.00;;
33858;SDS011;20156;47.486;12.074;2023-07-13T15:08:16;2.83;;;2.10;;
33858;SDS011;20156;47.486;12.074;2023-07-13T15:10:42;2.20;;;2.00;;
33858;SDS011;20156;47.486;12.074;2023-07-13T15:13:15;2.65;;;2.30;;
33858;SDS011;20156;47.486;12.074;2023-07-13T15:15:44;2.78;;;2.35;;
33858;SDS011;20156;47.486;12.074;2023-07-13T15:18:13;2.50;;;2.30;;
33858;SDS011;20156;47.486;12.074;2023-07-13T15:20:42;2.50;;;2.30;;
33858;SDS011;20156;47.486;12.074;2023-07-13T15:23:10;2.30;;;2.10;;
33858;SDS011;20156;47.486;12.074;2023-07-13T15:25:36;3.03;;;2.00;;
33858;SDS011;20156;47.486;12.074;2023-07-13T15:28:03;1.92;;;1.83;;
33858;SDS011;20156;47.486;12.074;2023-07-13T15:30:29;4.18;;;2.30;;
33858;SDS011;20156;47.486;12.074;2023-07-13T15:33:00;1.70;;;1.60;;
33858;SDS011;20156;47.486;12.074;2023-07-13T15:35:34;2.35;;;2.15;;
33858;SDS011;20156;47.486;12.074;2023-07-13T15:38:00;2.63;;;1.70;;
33858;SDS011;20156;47.486;12.074;2023-07-13T15:40:27;2.35;;;1.90;;